首页
METAR-TAF:

METAR-TAF

机场 :

克赖斯特彻奇国际机场

基督城, 新西兰

纬度: 43-29S, 经度: 172-33E, 海拔: 38米

当前天气观测

该预报发布于20分钟前的05:00 UTC
风速9节,风向
温度 20°C
湿度 56%
气压 1020 hPa
能见度10公里或以上

METAR: NZCH 190500Z AUTO 08009KT 9999 NCD 20/11 Q1020 NOSIG

时间: 18:20 (05:20 UTC)

预报

该预报发布于6小时和15分钟前的23:05 UTC
预报有效从19日的 00点(UTC)到 20日的 00点(UTC)
风速12节,风向东北
能见度10公里或以上
1500米以下无云,无积雨云
成为
从 19日的 06点(UTC)到 19日的 08点(UTC)
风速8节,风向西转西北
几率 30% :
短暂存在
从 19日的 10点(UTC)到 19日的 18点(UTC)
能見度: 2000
轻雾
成为
从 19日的 22点(UTC)到 20日的 00点(UTC)
风速12节,风向东转东北

TAF: NZCH 182305Z 1900/2000 04012KT CAVOK BECMG 1906/1908 30008KT PROB30 TEMPO 1910/1918 2000 BR BECMG 1922/2000 06012KT

超过4000个机场的气象观测和天气预报(METAR&TAF报告)。

可查询的气象台以黄色和红色小点在地图上表示。

将鼠标移到小点上方,可查看气象台名称。

然后点击查看天气观测和预报。

如需切换地图:点击带黑十字的绿色按钮放大地图;点击带横线的绿色按钮缩小地图;或者点击绿色箭头查看邻近地区的地图。


METAR-TAF: